sensor_id;sensor_type;location;lat;lon;timestamp;P1;durP1;ratioP1;P2;durP2;ratioP2
8642;SDS011;4359;49.358;11.256;2023-05-15T00:01:48;10.63;;;8.00;;
8642;SDS011;4359;49.358;11.256;2023-05-15T00:04:14;11.50;;;8.77;;
8642;SDS011;4359;49.358;11.256;2023-05-15T00:06:40;13.90;;;8.27;;
8642;SDS011;4359;49.358;11.256;2023-05-15T00:09:06;13.60;;;8.80;;
8642;SDS011;4359;49.358;11.256;2023-05-15T00:11:32;10.48;;;8.07;;
8642;SDS011;4359;49.358;11.256;2023-05-15T00:13:58;11.55;;;8.60;;
8642;SDS011;4359;49.358;11.256;2023-05-15T00:16:23;12.93;;;8.50;;
8642;SDS011;4359;49.358;11.256;2023-05-15T00:18:49;13.40;;;9.30;;
8642;SDS011;4359;49.358;11.256;2023-05-15T00:21:15;12.80;;;8.95;;
8642;SDS011;4359;49.358;11.256;2023-05-15T00:23:41;12.55;;;8.52;;
8642;SDS011;4359;49.358;11.256;2023-05-15T00:26:06;19.70;;;8.80;;
8642;SDS011;4359;49.358;11.256;2023-05-15T00:28:32;11.43;;;8.90;;
8642;SDS011;4359;49.358;11.256;2023-05-15T00:30:58;12.25;;;8.50;;
8642;SDS011;4359;49.358;11.256;2023-05-15T00:33:23;13.55;;;8.70;;
8642;SDS011;4359;49.358;11.256;2023-05-15T00:35:49;9.85;;;7.97;;
8642;SDS011;4359;49.358;11.256;2023-05-15T00:38:15;10.30;;;8.23;;
8642;SDS011;4359;49.358;11.256;2023-05-15T00:40:40;11.35;;;8.40;;
8642;SDS011;4359;49.358;11.256;2023-05-15T00:43:08;13.75;;;8.65;;
8642;SDS011;4359;49.358;11.256;2023-05-15T00:45:36;14.63;;;9.65;;
8642;SDS011;4359;49.358;11.256;2023-05-15T00:48:05;11.82;;;9.65;;
8642;SDS011;4359;49.358;11.256;2023-05-15T00:50:32;13.77;;;9.88;;
8642;SDS011;4359;49.358;11.256;2023-05-15T00:52:59;11.85;;;8.40;;
8642;SDS011;4359;49.358;11.256;2023-05-15T00:55:25;14.20;;;9.30;;
8642;SDS011;4359;49.358;11.256;2023-05-15T00:57:53;14.98;;;9.40;;
8642;SDS011;4359;49.358;11.256;2023-05-15T01:00:20;11.90;;;9.05;;
8642;SDS011;4359;49.358;11.256;2023-05-15T01:02:46;12.48;;;10.02;;
8642;SDS011;4359;49.358;11.256;2023-05-15T01:05:12;12.63;;;8.73;;
8642;SDS011;4359;49.358;11.256;2023-05-15T01:07:47;10.30;;;8.45;;
8642;SDS011;4359;49.358;11.256;2023-05-15T01:10:16;13.77;;;8.68;;
8642;SDS011;4359;49.358;11.256;2023-05-15T01:12:44;12.45;;;7.97;;
8642;SDS011;4359;49.358;11.256;2023-05-15T01:15:11;15.27;;;8.73;;
8642;SDS011;4359;49.358;11.256;2023-05-15T01:17:37;14.02;;;9.25;;
8642;SDS011;4359;49.358;11.256;2023-05-15T01:20:03;14.10;;;9.18;;
8642;SDS011;4359;49.358;11.256;2023-05-15T01:28:11;11.52;;;8.63;;
8642;SDS011;4359;49.358;11.256;2023-05-15T01:30:39;12.30;;;9.93;;
8642;SDS011;4359;49.358;11.256;2023-05-15T01:33:19;15.65;;;10.07;;
8642;SDS011;4359;49.358;11.256;2023-05-15T01:35:52;14.60;;;9.93;;
8642;SDS011;4359;49.358;11.256;2023-05-15T01:40:54;11.38;;;8.68;;
8642;SDS011;4359;49.358;11.256;2023-05-15T01:43:25;12.27;;;8.55;;
8642;SDS011;4359;49.358;11.256;2023-05-15T01:45:54;13.00;;;9.65;;
8642;SDS011;4359;49.358;11.256;2023-05-15T01:48:21;12.70;;;9.02;;
8642;SDS011;4359;49.358;11.256;2023-05-15T01:50:49;12.80;;;9.40;;
8642;SDS011;4359;49.358;11.256;2023-05-15T01:53:17;13.05;;;9.13;;
8642;SDS011;4359;49.358;11.256;2023-05-15T01:55:44;17.05;;;10.27;;
8642;SDS011;4359;49.358;11.256;2023-05-15T01:58:11;12.45;;;9.73;;
8642;SDS011;4359;49.358;11.256;2023-05-15T02:00:38;13.18;;;9.80;;
8642;SDS011;4359;49.358;11.256;2023-05-15T02:03:05;12.35;;;9.45;;
8642;SDS011;4359;49.358;11.256;2023-05-15T02:05:31;14.30;;;10.40;;
8642;SDS011;4359;49.358;11.256;2023-05-15T02:07:59;12.68;;;10.07;;
8642;SDS011;4359;49.358;11.256;2023-05-15T02:10:27;15.07;;;10.27;;
8642;SDS011;4359;49.358;11.256;2023-05-15T02:12:53;11.73;;;9.35;;
8642;SDS011;4359;49.358;11.256;2023-05-15T02:15:20;12.27;;;9.25;;
8642;SDS011;4359;49.358;11.256;2023-05-15T02:17:47;15.73;;;10.27;;
8642;SDS011;4359;49.358;11.256;2023-05-15T02:20:12;14.32;;;10.70;;
8642;SDS011;4359;49.358;11.256;2023-05-15T02:22:38;15.55;;;10.77;;
8642;SDS011;4359;49.358;11.256;2023-05-15T02:25:04;14.50;;;10.77;;
8642;SDS011;4359;49.358;11.256;2023-05-15T02:27:32;15.98;;;10.30;;
8642;SDS011;4359;49.358;11.256;2023-05-15T02:33:06;18.33;;;11.48;;
8642;SDS011;4359;49.358;11.256;2023-05-15T02:35:58;16.40;;;10.95;;
8642;SDS011;4359;49.358;11.256;2023-05-15T02:38:30;18.20;;;11.15;;
8642;SDS011;4359;49.358;11.256;2023-05-15T02:41:01;17.38;;;10.95;;
8642;SDS011;4359;49.358;11.256;2023-05-15T02:43:28;15.82;;;10.90;;
8642;SDS011;4359;49.358;11.256;2023-05-15T02:45:55;17.05;;;11.15;;
8642;SDS011;4359;49.358;11.256;2023-05-15T02:48:21;17.20;;;12.05;;
8642;SDS011;4359;49.358;11.256;2023-05-15T02:50:47;16.80;;;11.07;;
8642;SDS011;4359;49.358;11.256;2023-05-15T02:53:13;17.63;;;10.48;;
8642;SDS011;4359;49.358;11.256;2023-05-15T02:55:40;14.50;;;11.07;;
8642;SDS011;4359;49.358;11.256;2023-05-15T02:58:05;16.98;;;10.70;;
8642;SDS011;4359;49.358;11.256;2023-05-15T03:00:31;15.95;;;10.70;;
8642;SDS011;4359;49.358;11.256;2023-05-15T03:02:57;15.65;;;11.35;;
8642;SDS011;4359;49.358;11.256;2023-05-15T03:05:23;19.23;;;11.77;;
8642;SDS011;4359;49.358;11.256;2023-05-15T03:07:48;18.45;;;11.73;;
8642;SDS011;4359;49.358;11.256;2023-05-15T03:10:14;16.52;;;11.30;;
8642;SDS011;4359;49.358;11.256;2023-05-15T03:12:40;16.05;;;11.38;;
8642;SDS011;4359;49.358;11.256;2023-05-15T03:15:05;17.83;;;11.15;;
8642;SDS011;4359;49.358;11.256;2023-05-15T03:17:31;16.85;;;10.25;;
8642;SDS011;4359;49.358;11.256;2023-05-15T03:19:57;16.55;;;10.85;;
8642;SDS011;4359;49.358;11.256;2023-05-15T03:22:23;15.45;;;10.95;;
8642;SDS011;4359;49.358;11.256;2023-05-15T03:24:48;14.43;;;10.93;;
8642;SDS011;4359;49.358;11.256;2023-05-15T03:27:14;16.27;;;10.20;;
8642;SDS011;4359;49.358;11.256;2023-05-15T03:29:41;14.80;;;10.50;;
8642;SDS011;4359;49.358;11.256;2023-05-15T03:32:07;17.85;;;11.07;;
8642;SDS011;4359;49.358;11.256;2023-05-15T03:34:32;13.75;;;10.60;;
8642;SDS011;4359;49.358;11.256;2023-05-15T03:36:58;13.68;;;10.00;;
8642;SDS011;4359;49.358;11.256;2023-05-15T03:39:24;22.42;;;10.80;;
8642;SDS011;4359;49.358;11.256;2023-05-15T03:41:50;16.92;;;10.52;;
8642;SDS011;4359;49.358;11.256;2023-05-15T03:44:16;15.60;;;10.68;;
8642;SDS011;4359;49.358;11.256;2023-05-15T03:46:41;15.73;;;11.40;;
8642;SDS011;4359;49.358;11.256;2023-05-15T03:49:07;16.35;;;10.77;;
8642;SDS011;4359;49.358;11.256;2023-05-15T03:51:33;14.18;;;10.52;;
8642;SDS011;4359;49.358;11.256;2023-05-15T03:53:59;14.80;;;10.18;;
8642;SDS011;4359;49.358;11.256;2023-05-15T03:56:24;15.07;;;10.32;;
8642;SDS011;4359;49.358;11.256;2023-05-15T03:58:50;16.30;;;10.68;;
8642;SDS011;4359;49.358;11.256;2023-05-15T04:01:16;13.82;;;9.75;;
8642;SDS011;4359;49.358;11.256;2023-05-15T04:03:42;14.40;;;9.55;;
8642;SDS011;4359;49.358;11.256;2023-05-15T04:06:07;14.57;;;10.10;;
8642;SDS011;4359;49.358;11.256;2023-05-15T04:08:33;13.68;;;9.73;;
8642;SDS011;4359;49.358;11.256;2023-05-15T04:10:58;13.18;;;10.00;;
8642;SDS011;4359;49.358;11.256;2023-05-15T04:13:24;12.35;;;9.63;;
8642;SDS011;4359;49.358;11.256;2023-05-15T04:15:50;15.63;;;10.38;;
8642;SDS011;4359;49.358;11.256;2023-05-15T04:18:15;14.25;;;10.30;;
8642;SDS011;4359;49.358;11.256;2023-05-15T04:20:41;15.05;;;10.65;;
8642;SDS011;4359;49.358;11.256;2023-05-15T04:23:06;15.95;;;10.80;;
8642;SDS011;4359;49.358;11.256;2023-05-15T04:25:32;16.13;;;10.60;;
8642;SDS011;4359;49.358;11.256;2023-05-15T04:27:58;18.73;;;10.90;;
8642;SDS011;4359;49.358;11.256;2023-05-15T04:30:23;15.13;;;11.32;;
8642;SDS011;4359;49.358;11.256;2023-05-15T04:32:49;17.60;;;11.60;;
8642;SDS011;4359;49.358;11.256;2023-05-15T04:35:15;15.55;;;11.50;;
8642;SDS011;4359;49.358;11.256;2023-05-15T04:37:42;15.52;;;11.18;;
8642;SDS011;4359;49.358;11.256;2023-05-15T04:40:09;16.58;;;12.50;;
8642;SDS011;4359;49.358;11.256;2023-05-15T04:42:37;19.20;;;12.38;;
8642;SDS011;4359;49.358;11.256;2023-05-15T04:45:02;22.08;;;13.02;;
8642;SDS011;4359;49.358;11.256;2023-05-15T04:47:29;19.52;;;12.80;;
8642;SDS011;4359;49.358;11.256;2023-05-15T04:49:55;18.30;;;12.80;;
8642;SDS011;4359;49.358;11.256;2023-05-15T04:52:20;20.60;;;12.68;;
8642;SDS011;4359;49.358;11.256;2023-05-15T04:54:46;20.17;;;12.88;;
8642;SDS011;4359;49.358;11.256;2023-05-15T04:57:14;18.13;;;12.27;;
8642;SDS011;4359;49.358;11.256;2023-05-15T04:59:41;16.73;;;12.02;;
8642;SDS011;4359;49.358;11.256;2023-05-15T05:02:07;17.45;;;12.82;;
8642;SDS011;4359;49.358;11.256;2023-05-15T05:04:34;21.60;;;13.55;;
8642;SDS011;4359;49.358;11.256;2023-05-15T05:06:59;20.08;;;13.27;;
8642;SDS011;4359;49.358;11.256;2023-05-15T05:09:28;19.45;;;11.95;;
8642;SDS011;4359;49.358;11.256;2023-05-15T05:11:53;14.98;;;11.20;;
8642;SDS011;4359;49.358;11.256;2023-05-15T05:14:19;17.38;;;12.25;;
8642;SDS011;4359;49.358;11.256;2023-05-15T05:16:45;21.60;;;13.18;;
8642;SDS011;4359;49.358;11.256;2023-05-15T05:19:10;19.58;;;12.95;;
8642;SDS011;4359;49.358;11.256;2023-05-15T05:21:36;19.48;;;12.93;;
8642;SDS011;4359;49.358;11.256;2023-05-15T05:24:02;22.88;;;14.15;;
8642;SDS011;4359;49.358;11.256;2023-05-15T05:26:27;23.15;;;15.02;;
8642;SDS011;4359;49.358;11.256;2023-05-15T05:28:54;24.00;;;14.98;;
8642;SDS011;4359;49.358;11.256;2023-05-15T05:31:20;31.50;;;15.43;;
8642;SDS011;4359;49.358;11.256;2023-05-15T05:33:46;25.85;;;15.57;;
8642;SDS011;4359;49.358;11.256;2023-05-15T05:36:13;22.33;;;14.68;;
8642;SDS011;4359;49.358;11.256;2023-05-15T05:38:40;23.00;;;14.00;;
8642;SDS011;4359;49.358;11.256;2023-05-15T05:41:06;22.48;;;14.20;;
8642;SDS011;4359;49.358;11.256;2023-05-15T05:43:32;24.98;;;14.55;;
8642;SDS011;4359;49.358;11.256;2023-05-15T05:45:57;26.73;;;15.23;;
8642;SDS011;4359;49.358;11.256;2023-05-15T05:48:23;22.92;;;14.48;;
8642;SDS011;4359;49.358;11.256;2023-05-15T05:50:50;22.30;;;14.65;;
8642;SDS011;4359;49.358;11.256;2023-05-15T05:53:16;20.55;;;13.95;;
8642;SDS011;4359;49.358;11.256;2023-05-15T05:55:42;25.95;;;15.88;;
8642;SDS011;4359;49.358;11.256;2023-05-15T05:58:08;23.73;;;14.25;;
8642;SDS011;4359;49.358;11.256;2023-05-15T06:00:33;24.75;;;14.82;;
8642;SDS011;4359;49.358;11.256;2023-05-15T06:02:59;24.05;;;15.02;;
8642;SDS011;4359;49.358;11.256;2023-05-15T06:05:25;20.00;;;13.60;;
8642;SDS011;4359;49.358;11.256;2023-05-15T06:07:54;19.92;;;12.98;;
8642;SDS011;4359;49.358;11.256;2023-05-15T06:10:20;22.33;;;12.50;;
8642;SDS011;4359;49.358;11.256;2023-05-15T06:12:46;16.83;;;11.32;;
8642;SDS011;4359;49.358;11.256;2023-05-15T06:15:13;15.38;;;10.27;;
8642;SDS011;4359;49.358;11.256;2023-05-15T06:17:40;13.80;;;10.48;;
8642;SDS011;4359;49.358;11.256;2023-05-15T06:20:06;17.00;;;11.38;;
8642;SDS011;4359;49.358;11.256;2023-05-15T06:22:35;17.65;;;10.10;;
8642;SDS011;4359;49.358;11.256;2023-05-15T06:25:02;15.65;;;10.65;;
8642;SDS011;4359;49.358;11.256;2023-05-15T06:27:29;15.98;;;11.27;;
8642;SDS011;4359;49.358;11.256;2023-05-15T06:29:54;33.20;;;12.18;;
8642;SDS011;4359;49.358;11.256;2023-05-15T06:32:20;16.67;;;11.38;;
8642;SDS011;4359;49.358;11.256;2023-05-15T06:34:46;14.57;;;11.32;;
8642;SDS011;4359;49.358;11.256;2023-05-15T06:37:11;14.45;;;11.38;;
8642;SDS011;4359;49.358;11.256;2023-05-15T06:39:37;13.60;;;10.63;;
8642;SDS011;4359;49.358;11.256;2023-05-15T06:42:03;18.80;;;11.60;;
8642;SDS011;4359;49.358;11.256;2023-05-15T06:44:29;13.48;;;11.07;;
8642;SDS011;4359;49.358;11.256;2023-05-15T06:46:55;12.15;;;9.90;;
8642;SDS011;4359;49.358;11.256;2023-05-15T06:49:21;13.35;;;11.13;;
8642;SDS011;4359;49.358;11.256;2023-05-15T06:51:47;10.85;;;9.02;;
8642;SDS011;4359;49.358;11.256;2023-05-15T06:54:12;12.02;;;8.40;;
8642;SDS011;4359;49.358;11.256;2023-05-15T06:56:38;11.18;;;8.30;;
8642;SDS011;4359;49.358;11.256;2023-05-15T06:59:04;10.95;;;8.00;;
8642;SDS011;4359;49.358;11.256;2023-05-15T07:01:30;10.20;;;7.53;;
8642;SDS011;4359;49.358;11.256;2023-05-15T07:03:56;9.85;;;7.25;;
8642;SDS011;4359;49.358;11.256;2023-05-15T07:06:21;9.80;;;7.10;;
8642;SDS011;4359;49.358;11.256;2023-05-15T07:08:47;7.45;;;6.43;;
8642;SDS011;4359;49.358;11.256;2023-05-15T07:11:13;9.43;;;7.20;;
8642;SDS011;4359;49.358;11.256;2023-05-15T07:13:39;11.02;;;7.18;;
8642;SDS011;4359;49.358;11.256;2023-05-15T07:16:05;10.77;;;7.63;;
8642;SDS011;4359;49.358;11.256;2023-05-15T07:18:31;9.70;;;7.32;;
8642;SDS011;4359;49.358;11.256;2023-05-15T07:20:56;8.18;;;6.70;;
8642;SDS011;4359;49.358;11.256;2023-05-15T07:23:22;7.40;;;5.90;;
8642;SDS011;4359;49.358;11.256;2023-05-15T07:25:48;7.47;;;5.75;;
8642;SDS011;4359;49.358;11.256;2023-05-15T07:28:13;7.50;;;5.35;;
8642;SDS011;4359;49.358;11.256;2023-05-15T07:30:39;7.60;;;5.40;;
8642;SDS011;4359;49.358;11.256;2023-05-15T07:33:05;5.93;;;5.32;;
8642;SDS011;4359;49.358;11.256;2023-05-15T07:35:31;9.18;;;5.30;;
8642;SDS011;4359;49.358;11.256;2023-05-15T07:37:56;8.10;;;5.18;;
8642;SDS011;4359;49.358;11.256;2023-05-15T07:40:22;9.73;;;5.60;;
8642;SDS011;4359;49.358;11.256;2023-05-15T07:42:48;7.80;;;5.57;;
8642;SDS011;4359;49.358;11.256;2023-05-15T07:45:13;10.30;;;6.07;;
8642;SDS011;4359;49.358;11.256;2023-05-15T07:47:48;8.60;;;6.15;;
8642;SDS011;4359;49.358;11.256;2023-05-15T07:50:14;8.77;;;5.78;;
8642;SDS011;4359;49.358;11.256;2023-05-15T07:52:40;7.57;;;5.55;;
8642;SDS011;4359;49.358;11.256;2023-05-15T07:55:07;7.20;;;5.28;;
8642;SDS011;4359;49.358;11.256;2023-05-15T07:57:33;7.65;;;5.20;;
8642;SDS011;4359;49.358;11.256;2023-05-15T07:59:59;11.27;;;5.55;;
8642;SDS011;4359;49.358;11.256;2023-05-15T08:02:30;14.13;;;5.38;;
8642;SDS011;4359;49.358;11.256;2023-05-15T08:04:56;7.88;;;5.45;;
8642;SDS011;4359;49.358;11.256;2023-05-15T08:07:22;8.02;;;4.97;;
8642;SDS011;4359;49.358;11.256;2023-05-15T08:09:48;5.20;;;4.43;;
8642;SDS011;4359;49.358;11.256;2023-05-15T08:12:17;6.10;;;4.88;;
8642;SDS011;4359;49.358;11.256;2023-05-15T08:14:49;8.35;;;5.55;;
8642;SDS011;4359;49.358;11.256;2023-05-15T08:17:15;9.32;;;5.40;;
8642;SDS011;4359;49.358;11.256;2023-05-15T08:19:41;7.50;;;5.82;;
8642;SDS011;4359;49.358;11.256;2023-05-15T08:22:07;8.75;;;5.53;;
8642;SDS011;4359;49.358;11.256;2023-05-15T08:24:33;8.52;;;5.82;;
8642;SDS011;4359;49.358;11.256;2023-05-15T08:26:58;11.82;;;5.93;;
8642;SDS011;4359;49.358;11.256;2023-05-15T08:29:24;8.25;;;5.60;;
8642;SDS011;4359;49.358;11.256;2023-05-15T08:31:50;6.60;;;4.70;;
8642;SDS011;4359;49.358;11.256;2023-05-15T08:34:16;9.80;;;4.97;;
8642;SDS011;4359;49.358;11.256;2023-05-15T08:36:42;6.75;;;5.05;;
8642;SDS011;4359;49.358;11.256;2023-05-15T08:39:08;5.95;;;4.57;;
8642;SDS011;4359;49.358;11.256;2023-05-15T08:41:39;9.23;;;4.82;;
8642;SDS011;4359;49.358;11.256;2023-05-15T08:44:12;8.90;;;5.25;;
8642;SDS011;4359;49.358;11.256;2023-05-15T08:46:38;11.13;;;5.13;;
8642;SDS011;4359;49.358;11.256;2023-05-15T08:49:17;7.43;;;4.90;;
8642;SDS011;4359;49.358;11.256;2023-05-15T08:51:52;7.28;;;5.10;;
8642;SDS011;4359;49.358;11.256;2023-05-15T08:54:18;9.65;;;5.30;;
8642;SDS011;4359;49.358;11.256;2023-05-15T08:56:44;6.15;;;4.53;;
8642;SDS011;4359;49.358;11.256;2023-05-15T08:59:10;6.90;;;4.75;;
8642;SDS011;4359;49.358;11.256;2023-05-15T09:01:36;7.47;;;5.78;;
8642;SDS011;4359;49.358;11.256;2023-05-15T09:04:03;6.57;;;5.47;;
8642;SDS011;4359;49.358;11.256;2023-05-15T09:06:28;10.10;;;5.90;;
8642;SDS011;4359;49.358;11.256;2023-05-15T09:08:56;7.82;;;5.85;;
8642;SDS011;4359;49.358;11.256;2023-05-15T09:11:25;9.10;;;5.50;;
8642;SDS011;4359;49.358;11.256;2023-05-15T09:13:52;8.85;;;5.45;;
8642;SDS011;4359;49.358;11.256;2023-05-15T09:16:24;6.30;;;4.60;;
8642;SDS011;4359;49.358;11.256;2023-05-15T09:18:51;7.90;;;4.72;;
8642;SDS011;4359;49.358;11.256;2023-05-15T09:23:49;5.70;;;3.70;;
8642;SDS011;4359;49.358;11.256;2023-05-15T09:26:15;4.20;;;3.60;;
8642;SDS011;4359;49.358;11.256;2023-05-15T09:28:41;5.47;;;3.88;;
8642;SDS011;4359;49.358;11.256;2023-05-15T09:31:07;7.55;;;3.80;;
8642;SDS011;4359;49.358;11.256;2023-05-15T09:36:00;6.63;;;4.30;;
8642;SDS011;4359;49.358;11.256;2023-05-15T09:38:27;5.95;;;4.13;;
8642;SDS011;4359;49.358;11.256;2023-05-15T09:41:03;4.70;;;3.95;;
8642;SDS011;4359;49.358;11.256;2023-05-15T09:43:36;6.20;;;3.70;;
8642;SDS011;4359;49.358;11.256;2023-05-15T09:46:04;5.13;;;3.30;;
8642;SDS011;4359;49.358;11.256;2023-05-15T09:48:30;6.95;;;3.65;;
8642;SDS011;4359;49.358;11.256;2023-05-15T09:50:56;6.13;;;3.92;;
8642;SDS011;4359;49.358;11.256;2023-05-15T09:53:22;6.20;;;3.70;;
8642;SDS011;4359;49.358;11.256;2023-05-15T09:55:48;5.68;;;3.50;;
8642;SDS011;4359;49.358;11.256;2023-05-15T09:58:15;6.00;;;3.67;;
8642;SDS011;4359;49.358;11.256;2023-05-15T10:00:42;4.78;;;3.50;;
8642;SDS011;4359;49.358;11.256;2023-05-15T10:03:08;5.05;;;3.58;;
8642;SDS011;4359;49.358;11.256;2023-05-15T10:05:36;4.00;;;3.15;;
8642;SDS011;4359;49.358;11.256;2023-05-15T10:08:02;4.53;;;3.22;;
8642;SDS011;4359;49.358;11.256;2023-05-15T10:10:28;5.15;;;3.35;;
8642;SDS011;4359;49.358;11.256;2023-05-15T10:12:55;6.07;;;3.80;;
8642;SDS011;4359;49.358;11.256;2023-05-15T10:15:27;4.57;;;3.50;;
8642;SDS011;4359;49.358;11.256;2023-05-15T10:17:53;5.47;;;3.33;;
8642;SDS011;4359;49.358;11.256;2023-05-15T10:20:20;4.40;;;3.50;;
8642;SDS011;4359;49.358;11.256;2023-05-15T10:22:49;5.28;;;3.70;;
8642;SDS011;4359;49.358;11.256;2023-05-15T10:27:47;4.18;;;3.13;;
8642;SDS011;4359;49.358;11.256;2023-05-15T10:30:15;4.93;;;3.38;;
8642;SDS011;4359;49.358;11.256;2023-05-15T10:32:42;5.63;;;2.60;;
8642;SDS011;4359;49.358;11.256;2023-05-15T10:35:09;4.07;;;2.80;;
8642;SDS011;4359;49.358;11.256;2023-05-15T10:37:38;3.80;;;2.85;;
8642;SDS011;4359;49.358;11.256;2023-05-15T10:40:05;4.50;;;2.90;;
8642;SDS011;4359;49.358;11.256;2023-05-15T10:42:33;4.68;;;2.80;;
8642;SDS011;4359;49.358;11.256;2023-05-15T10:45:00;3.58;;;2.70;;
8642;SDS011;4359;49.358;11.256;2023-05-15T10:47:27;3.50;;;2.20;;
8642;SDS011;4359;49.358;11.256;2023-05-15T10:49:54;3.80;;;2.50;;
8642;SDS011;4359;49.358;11.256;2023-05-15T10:52:21;3.25;;;2.05;;
8642;SDS011;4359;49.358;11.256;2023-05-15T10:54:46;4.75;;;2.45;;
8642;SDS011;4359;49.358;11.256;2023-05-15T10:57:13;2.83;;;1.70;;
8642;SDS011;4359;49.358;11.256;2023-05-15T10:59:39;3.28;;;1.70;;
8642;SDS011;4359;49.358;11.256;2023-05-15T11:04:54;5.38;;;1.75;;
8642;SDS011;4359;49.358;11.256;2023-05-15T11:07:23;2.63;;;1.80;;
8642;SDS011;4359;49.358;11.256;2023-05-15T11:09:50;4.32;;;1.60;;
8642;SDS011;4359;49.358;11.256;2023-05-15T11:12:17;3.50;;;1.75;;
8642;SDS011;4359;49.358;11.256;2023-05-15T11:15:40;3.85;;;1.67;;
8642;SDS011;4359;49.358;11.256;2023-05-15T11:17:35;3.33;;;1.70;;
8642;SDS011;4359;49.358;11.256;2023-05-15T11:20:00;3.08;;;1.70;;
8642;SDS011;4359;49.358;11.256;2023-05-15T11:22:27;5.43;;;1.70;;
8642;SDS011;4359;49.358;11.256;2023-05-15T11:24:58;5.07;;;1.80;;
8642;SDS011;4359;49.358;11.256;2023-05-15T11:27:31;2.35;;;1.60;;
8642;SDS011;4359;49.358;11.256;2023-05-15T11:35:12;4.65;;;1.55;;
8642;SDS011;4359;49.358;11.256;2023-05-15T11:37:46;3.95;;;1.70;;
8642;SDS011;4359;49.358;11.256;2023-05-15T11:40:23;2.75;;;1.73;;
8642;SDS011;4359;49.358;11.256;2023-05-15T11:43:05;3.15;;;1.50;;
8642;SDS011;4359;49.358;11.256;2023-05-15T11:45:36;3.30;;;1.60;;
8642;SDS011;4359;49.358;11.256;2023-05-15T11:48:04;5.75;;;2.20;;
8642;SDS011;4359;49.358;11.256;2023-05-15T11:50:31;3.95;;;2.00;;
8642;SDS011;4359;49.358;11.256;2023-05-15T11:53:05;3.33;;;2.10;;
8642;SDS011;4359;49.358;11.256;2023-05-15T11:55:32;3.08;;;2.08;;
8642;SDS011;4359;49.358;11.256;2023-05-15T11:58:00;4.38;;;2.75;;
8642;SDS011;4359;49.358;11.256;2023-05-15T12:00:26;3.50;;;2.30;;
8642;SDS011;4359;49.358;11.256;2023-05-15T12:02:52;3.17;;;2.28;;
8642;SDS011;4359;49.358;11.256;2023-05-15T12:05:18;4.70;;;2.55;;
8642;SDS011;4359;49.358;11.256;2023-05-15T12:07:43;4.82;;;2.53;;
8642;SDS011;4359;49.358;11.256;2023-05-15T12:10:10;4.32;;;2.70;;
8642;SDS011;4359;49.358;11.256;2023-05-15T12:12:43;7.43;;;2.50;;
8642;SDS011;4359;49.358;11.256;2023-05-15T12:17:39;6.43;;;2.55;;
8642;SDS011;4359;49.358;11.256;2023-05-15T12:20:15;3.85;;;2.50;;
8642;SDS011;4359;49.358;11.256;2023-05-15T12:22:42;3.33;;;2.38;;
8642;SDS011;4359;49.358;11.256;2023-05-15T12:25:09;6.18;;;3.00;;
8642;SDS011;4359;49.358;11.256;2023-05-15T12:27:36;4.85;;;2.70;;
8642;SDS011;4359;49.358;11.256;2023-05-15T12:30:03;3.85;;;2.58;;
8642;SDS011;4359;49.358;11.256;2023-05-15T12:32:31;3.60;;;2.60;;
8642;SDS011;4359;49.358;11.256;2023-05-15T12:34:58;3.50;;;2.90;;
8642;SDS011;4359;49.358;11.256;2023-05-15T12:37:30;6.40;;;2.90;;
8642;SDS011;4359;49.358;11.256;2023-05-15T12:40:04;5.90;;;2.88;;
8642;SDS011;4359;49.358;11.256;2023-05-15T12:42:40;5.05;;;2.65;;
8642;SDS011;4359;49.358;11.256;2023-05-15T12:45:14;5.00;;;2.70;;
8642;SDS011;4359;49.358;11.256;2023-05-15T12:47:41;4.68;;;2.80;;
8642;SDS011;4359;49.358;11.256;2023-05-15T12:50:12;4.80;;;3.20;;
8642;SDS011;4359;49.358;11.256;2023-05-15T12:52:45;4.07;;;2.80;;
8642;SDS011;4359;49.358;11.256;2023-05-15T12:55:15;5.22;;;2.90;;
8642;SDS011;4359;49.358;11.256;2023-05-15T12:57:42;4.22;;;2.70;;
8642;SDS011;4359;49.358;11.256;2023-05-15T13:00:11;4.00;;;2.67;;
8642;SDS011;4359;49.358;11.256;2023-05-15T13:02:38;5.18;;;3.28;;
8642;SDS011;4359;49.358;11.256;2023-05-15T13:05:10;5.32;;;3.10;;
8642;SDS011;4359;49.358;11.256;2023-05-15T13:07:37;4.38;;;3.10;;
8642;SDS011;4359;49.358;11.256;2023-05-15T13:10:06;4.18;;;2.83;;
8642;SDS011;4359;49.358;11.256;2023-05-15T13:12:41;5.75;;;2.63;;
8642;SDS011;4359;49.358;11.256;2023-05-15T13:15:20;6.80;;;2.55;;
8642;SDS011;4359;49.358;11.256;2023-05-15T13:17:46;5.75;;;2.30;;
8642;SDS011;4359;49.358;11.256;2023-05-15T13:20:11;3.83;;;2.10;;
8642;SDS011;4359;49.358;11.256;2023-05-15T13:22:37;5.43;;;2.58;;
8642;SDS011;4359;49.358;11.256;2023-05-15T13:25:03;4.30;;;2.75;;
8642;SDS011;4359;49.358;11.256;2023-05-15T13:27:29;4.30;;;2.70;;
8642;SDS011;4359;49.358;11.256;2023-05-15T13:29:54;4.07;;;2.53;;
8642;SDS011;4359;49.358;11.256;2023-05-15T13:32:20;4.15;;;2.78;;
8642;SDS011;4359;49.358;11.256;2023-05-15T13:34:46;4.05;;;3.10;;
8642;SDS011;4359;49.358;11.256;2023-05-15T13:37:12;5.18;;;2.70;;
8642;SDS011;4359;49.358;11.256;2023-05-15T13:39:38;5.63;;;3.22;;
8642;SDS011;4359;49.358;11.256;2023-05-15T13:42:04;5.95;;;3.28;;
8642;SDS011;4359;49.358;11.256;2023-05-15T13:44:29;6.47;;;3.13;;
8642;SDS011;4359;49.358;11.256;2023-05-15T13:46:56;5.38;;;3.38;;
8642;SDS011;4359;49.358;11.256;2023-05-15T13:49:22;5.65;;;3.10;;
8642;SDS011;4359;49.358;11.256;2023-05-15T13:51:48;3.70;;;3.05;;
8642;SDS011;4359;49.358;11.256;2023-05-15T13:54:13;7.75;;;3.25;;
8642;SDS011;4359;49.358;11.256;2023-05-15T13:56:39;5.32;;;3.38;;
8642;SDS011;4359;49.358;11.256;2023-05-15T13:59:05;8.88;;;3.13;;
8642;SDS011;4359;49.358;11.256;2023-05-15T14:01:30;6.47;;;3.03;;
8642;SDS011;4359;49.358;11.256;2023-05-15T14:03:56;5.72;;;3.10;;
8642;SDS011;4359;49.358;11.256;2023-05-15T14:06:22;8.07;;;3.30;;
8642;SDS011;4359;49.358;11.256;2023-05-15T14:08:47;4.43;;;2.97;;
8642;SDS011;4359;49.358;11.256;2023-05-15T14:11:13;6.28;;;3.10;;
8642;SDS011;4359;49.358;11.256;2023-05-15T14:13:39;5.07;;;3.15;;
8642;SDS011;4359;49.358;11.256;2023-05-15T14:16:07;5.05;;;2.85;;
8642;SDS011;4359;49.358;11.256;2023-05-15T14:18:33;5.35;;;3.00;;
8642;SDS011;4359;49.358;11.256;2023-05-15T14:20:58;5.93;;;2.80;;
8642;SDS011;4359;49.358;11.256;2023-05-15T14:23:24;4.13;;;3.03;;
8642;SDS011;4359;49.358;11.256;2023-05-15T14:25:50;5.78;;;3.00;;
8642;SDS011;4359;49.358;11.256;2023-05-15T14:28:16;5.05;;;3.17;;
8642;SDS011;4359;49.358;11.256;2023-05-15T14:30:41;4.32;;;2.50;;
8642;SDS011;4359;49.358;11.256;2023-05-15T14:33:07;5.97;;;2.80;;
8642;SDS011;4359;49.358;11.256;2023-05-15T14:35:32;6.35;;;3.03;;
8642;SDS011;4359;49.358;11.256;2023-05-15T14:37:58;4.13;;;2.67;;
8642;SDS011;4359;49.358;11.256;2023-05-15T14:40:24;10.80;;;2.90;;
8642;SDS011;4359;49.358;11.256;2023-05-15T14:42:53;6.90;;;3.10;;
8642;SDS011;4359;49.358;11.256;2023-05-15T14:45:18;4.80;;;2.80;;
8642;SDS011;4359;49.358;11.256;2023-05-15T14:47:44;5.70;;;2.50;;
8642;SDS011;4359;49.358;11.256;2023-05-15T14:50:10;4.25;;;2.47;;
8642;SDS011;4359;49.358;11.256;2023-05-15T14:52:35;5.47;;;2.60;;
8642;SDS011;4359;49.358;11.256;2023-05-15T14:55:01;3.72;;;2.72;;
8642;SDS011;4359;49.358;11.256;2023-05-15T14:57:27;3.53;;;2.50;;
8642;SDS011;4359;49.358;11.256;2023-05-15T14:59:53;8.13;;;3.08;;
8642;SDS011;4359;49.358;11.256;2023-05-15T15:02:18;5.82;;;2.88;;
8642;SDS011;4359;49.358;11.256;2023-05-15T15:04:44;7.30;;;3.05;;
8642;SDS011;4359;49.358;11.256;2023-05-15T15:07:10;8.20;;;2.90;;
8642;SDS011;4359;49.358;11.256;2023-05-15T15:09:36;6.70;;;2.70;;
8642;SDS011;4359;49.358;11.256;2023-05-15T15:12:02;3.58;;;2.70;;
8642;SDS011;4359;49.358;11.256;2023-05-15T15:14:28;11.25;;;3.22;;
8642;SDS011;4359;49.358;11.256;2023-05-15T15:16:54;7.13;;;2.90;;
8642;SDS011;4359;49.358;11.256;2023-05-15T15:19:20;7.30;;;3.20;;